sensor_id;sensor_type;location;lat;lon;timestamp;pressure;altitude;pressure_sealevel;temperature;humidity
10097;BME280;5087;42.662;23.466;2022-09-09T00:00:14;95573.25;;;15.79;100.00
10097;BME280;5087;42.662;23.466;2022-09-09T00:02:48;95585.78;;;15.80;100.00
10097;BME280;5087;42.662;23.466;2022-09-09T00:05:24;95569.72;;;15.66;100.00
10097;BME280;5087;42.662;23.466;2022-09-09T00:07:58;95574.84;;;15.68;100.00
10097;BME280;5087;42.662;23.466;2022-09-09T00:10:29;95581.81;;;15.65;100.00
10097;BME280;5087;42.662;23.466;2022-09-09T00:13:01;95571.66;;;15.54;100.00
10097;BME280;5087;42.662;23.466;2022-09-09T00:15:38;95580.22;;;15.52;100.00
10097;BME280;5087;42.662;23.466;2022-09-09T00:18:16;95547.66;;;15.22;100.00
10097;BME280;5087;42.662;23.466;2022-09-09T00:20:49;95566.69;;;15.31;100.00
10097;BME280;5087;42.662;23.466;2022-09-09T00:26:49;95576.25;;;15.25;100.00
10097;BME280;5087;42.662;23.466;2022-09-09T00:29:24;95572.38;;;15.38;100.00
10097;BME280;5087;42.662;23.466;2022-09-09T00:32:00;95575.59;;;15.28;100.00
10097;BME280;5087;42.662;23.466;2022-09-09T00:34:32;95574.44;;;15.16;100.00
10097;BME280;5087;42.662;23.466;2022-09-09T00:37:02;95554.94;;;14.93;100.00
10097;BME280;5087;42.662;23.466;2022-09-09T00:39:32;95556.88;;;14.93;100.00
10097;BME280;5087;42.662;23.466;2022-09-09T00:42:13;95519.47;;;14.60;100.00
10097;BME280;5087;42.662;23.466;2022-09-09T00:44:52;95560.28;;;14.90;100.00
10097;BME280;5087;42.662;23.466;2022-09-09T00:47:39;95546.28;;;14.79;100.00
10097;BME280;5087;42.662;23.466;2022-09-09T00:50:21;95540.22;;;14.73;100.00
10097;BME280;5087;42.662;23.466;2022-09-09T00:53:02;95553.16;;;14.64;100.00
10097;BME280;5087;42.662;23.466;2022-09-09T00:55:41;95550.41;;;14.64;100.00
10097;BME280;5087;42.662;23.466;2022-09-09T00:58:09;95553.81;;;14.61;100.00
10097;BME280;5087;42.662;23.466;2022-09-09T01:00:42;95547.66;;;14.51;100.00
10097;BME280;5087;42.662;23.466;2022-09-09T01:03:20;95544.56;;;14.40;100.00
10097;BME280;5087;42.662;23.466;2022-09-09T01:05:57;95544.66;;;14.32;100.00
10097;BME280;5087;42.662;23.466;2022-09-09T01:08:57;95549.25;;;14.19;100.00
10097;BME280;5087;42.662;23.466;2022-09-09T01:11:33;95559.13;;;14.11;100.00
10097;BME280;5087;42.662;23.466;2022-09-09T01:14:13;95554.28;;;13.96;100.00
10097;BME280;5087;42.662;23.466;2022-09-09T01:16:42;95531.59;;;13.61;100.00
10097;BME280;5087;42.662;23.466;2022-09-09T01:19:16;95563.47;;;13.70;100.00
10097;BME280;5087;42.662;23.466;2022-09-09T01:21:50;95547.03;;;13.57;100.00
10097;BME280;5087;42.662;23.466;2022-09-09T01:24:27;95570.72;;;13.66;100.00
10097;BME280;5087;42.662;23.466;2022-09-09T01:27:23;95561.88;;;13.69;100.00
10097;BME280;5087;42.662;23.466;2022-09-09T01:29:52;95564.69;;;13.81;100.00
10097;BME280;5087;42.662;23.466;2022-09-09T01:32:40;95562.59;;;13.78;100.00
10097;BME280;5087;42.662;23.466;2022-09-09T01:35:12;95559.75;;;13.74;100.00
10097;BME280;5087;42.662;23.466;2022-09-09T01:37:42;95559.41;;;13.76;100.00
10097;BME280;5087;42.662;23.466;2022-09-09T01:40:09;95563.00;;;13.89;100.00
10097;BME280;5087;42.662;23.466;2022-09-09T01:42:39;95564.53;;;13.99;100.00
10097;BME280;5087;42.662;23.466;2022-09-09T01:45:07;95561.13;;;14.02;100.00
10097;BME280;5087;42.662;23.466;2022-09-09T01:47:35;95522.41;;;13.66;100.00
10097;BME280;5087;42.662;23.466;2022-09-09T01:50:35;95562.22;;;13.88;100.00
10097;BME280;5087;42.662;23.466;2022-09-09T01:53:03;95573.91;;;14.10;100.00
10097;BME280;5087;42.662;23.466;2022-09-09T01:55:37;95562.34;;;13.92;100.00
10097;BME280;5087;42.662;23.466;2022-09-09T01:58:19;95573.44;;;14.29;100.00
10097;BME280;5087;42.662;23.466;2022-09-09T02:01:04;95571.97;;;14.11;100.00
10097;BME280;5087;42.662;23.466;2022-09-09T02:03:35;95575.13;;;14.00;100.00
10097;BME280;5087;42.662;23.466;2022-09-09T02:06:19;95562.88;;;13.85;100.00
10097;BME280;5087;42.662;23.466;2022-09-09T02:08:58;95570.31;;;14.18;100.00
10097;BME280;5087;42.662;23.466;2022-09-09T02:11:27;95574.69;;;14.32;100.00
10097;BME280;5087;42.662;23.466;2022-09-09T02:14:12;95561.28;;;14.39;100.00
10097;BME280;5087;42.662;23.466;2022-09-09T02:16:47;95545.47;;;14.45;100.00
10097;BME280;5087;42.662;23.466;2022-09-09T02:19:21;95583.84;;;14.48;100.00
10097;BME280;5087;42.662;23.466;2022-09-09T02:22:17;95551.19;;;14.18;100.00
10097;BME280;5087;42.662;23.466;2022-09-09T02:24:47;95564.81;;;14.39;100.00
10097;BME280;5087;42.662;23.466;2022-09-09T02:27:22;95539.53;;;14.30;100.00
10097;BME280;5087;42.662;23.466;2022-09-09T02:29:53;95559.25;;;14.48;100.00
10097;BME280;5087;42.662;23.466;2022-09-09T02:32:35;95544.41;;;14.37;100.00
10097;BME280;5087;42.662;23.466;2022-09-09T02:35:09;95521.16;;;14.18;100.00
10097;BME280;5087;42.662;23.466;2022-09-09T02:37:42;95530.25;;;14.10;100.00
10097;BME280;5087;42.662;23.466;2022-09-09T02:40:13;95556.44;;;14.23;100.00
10097;BME280;5087;42.662;23.466;2022-09-09T02:42:48;95565.50;;;14.15;100.00
10097;BME280;5087;42.662;23.466;2022-09-09T02:45:23;95561.06;;;14.11;100.00
10097;BME280;5087;42.662;23.466;2022-09-09T02:48:03;95559.78;;;14.08;100.00
10097;BME280;5087;42.662;23.466;2022-09-09T02:50:41;95565.00;;;14.01;100.00
10097;BME280;5087;42.662;23.466;2022-09-09T02:53:16;95547.63;;;13.84;100.00
10097;BME280;5087;42.662;23.466;2022-09-09T02:55:48;95578.84;;;13.96;100.00
10097;BME280;5087;42.662;23.466;2022-09-09T02:58:21;95581.72;;;13.78;100.00
10097;BME280;5087;42.662;23.466;2022-09-09T03:01:02;95544.84;;;13.72;100.00
10097;BME280;5087;42.662;23.466;2022-09-09T03:03:30;95570.28;;;14.06;100.00
10097;BME280;5087;42.662;23.466;2022-09-09T03:05:59;95567.69;;;13.88;100.00
10097;BME280;5087;42.662;23.466;2022-09-09T03:08:28;95574.91;;;13.84;100.00
10097;BME280;5087;42.662;23.466;2022-09-09T03:10:58;95561.97;;;13.81;100.00
10097;BME280;5087;42.662;23.466;2022-09-09T03:13:29;95573.13;;;13.88;100.00
10097;BME280;5087;42.662;23.466;2022-09-09T03:15:56;95581.72;;;13.78;100.00
10097;BME280;5087;42.662;23.466;2022-09-09T03:18:25;95589.63;;;13.71;100.00
10097;BME280;5087;42.662;23.466;2022-09-09T03:20:54;95592.69;;;13.69;100.00
10097;BME280;5087;42.662;23.466;2022-09-09T03:23:22;95584.22;;;13.83;100.00
10097;BME280;5087;42.662;23.466;2022-09-09T03:25:50;95574.66;;;13.77;100.00
10097;BME280;5087;42.662;23.466;2022-09-09T03:28:25;95565.44;;;13.60;100.00
10097;BME280;5087;42.662;23.466;2022-09-09T03:31:01;95585.25;;;13.79;100.00
10097;BME280;5087;42.662;23.466;2022-09-09T03:33:35;95592.69;;;13.69;100.00
10097;BME280;5087;42.662;23.466;2022-09-09T03:36:03;95586.09;;;13.70;100.00
10097;BME280;5087;42.662;23.466;2022-09-09T03:38:31;95573.66;;;13.82;100.00
10097;BME280;5087;42.662;23.466;2022-09-09T03:41:00;95582.31;;;13.84;100.00
10097;BME280;5087;42.662;23.466;2022-09-09T03:43:29;95587.25;;;13.90;100.00
10097;BME280;5087;42.662;23.466;2022-09-09T03:45:57;95588.91;;;14.04;100.00
10097;BME280;5087;42.662;23.466;2022-09-09T03:48:27;95577.91;;;13.91;100.00
10097;BME280;5087;42.662;23.466;2022-09-09T03:50:56;95581.50;;;14.04;100.00
10097;BME280;5087;42.662;23.466;2022-09-09T03:53:27;95561.22;;;13.93;100.00
10097;BME280;5087;42.662;23.466;2022-09-09T03:55:56;95592.41;;;14.04;100.00
10097;BME280;5087;42.662;23.466;2022-09-09T03:58:26;95573.13;;;13.88;100.00
10097;BME280;5087;42.662;23.466;2022-09-09T04:01:01;95591.09;;;13.89;100.00
10097;BME280;5087;42.662;23.466;2022-09-09T04:03:30;95565.75;;;13.68;100.00
10097;BME280;5087;42.662;23.466;2022-09-09T04:06:00;95576.47;;;13.73;100.00
10097;BME280;5087;42.662;23.466;2022-09-09T04:08:30;95595.69;;;13.76;100.00
10097;BME280;5087;42.662;23.466;2022-09-09T04:10:59;95571.38;;;13.63;100.00
10097;BME280;5087;42.662;23.466;2022-09-09T04:13:28;95598.16;;;13.90;100.00
10097;BME280;5087;42.662;23.466;2022-09-09T04:16:12;95575.13;;;13.79;100.00
10097;BME280;5087;42.662;23.466;2022-09-09T04:18:42;95583.06;;;13.93;100.00
10097;BME280;5087;42.662;23.466;2022-09-09T04:21:11;95586.84;;;14.01;100.00
10097;BME280;5087;42.662;23.466;2022-09-09T04:23:40;95587.91;;;14.08;100.00
10097;BME280;5087;42.662;23.466;2022-09-09T04:26:08;95593.28;;;14.17;100.00
10097;BME280;5087;42.662;23.466;2022-09-09T04:28:37;95583.50;;;14.16;100.00
10097;BME280;5087;42.662;23.466;2022-09-09T04:31:17;95575.66;;;14.15;100.00
10097;BME280;5087;42.662;23.466;2022-09-09T04:33:47;95599.84;;;14.37;100.00
10097;BME280;5087;42.662;23.466;2022-09-09T04:36:17;95573.59;;;14.45;100.00
10097;BME280;5087;42.662;23.466;2022-09-09T04:38:50;95576.84;;;14.60;100.00
10097;BME280;5087;42.662;23.466;2022-09-09T04:41:17;95576.19;;;14.75;100.00
10097;BME280;5087;42.662;23.466;2022-09-09T04:43:48;95539.66;;;14.46;100.00
10097;BME280;5087;42.662;23.466;2022-09-09T04:46:16;95585.44;;;14.70;100.00
10097;BME280;5087;42.662;23.466;2022-09-09T04:48:44;95584.91;;;14.90;100.00
10097;BME280;5087;42.662;23.466;2022-09-09T04:51:13;95575.53;;;14.78;100.00
10097;BME280;5087;42.662;23.466;2022-09-09T04:53:43;95582.50;;;15.00;100.00
10097;BME280;5087;42.662;23.466;2022-09-09T04:56:17;95560.19;;;14.86;100.00
10097;BME280;5087;42.662;23.466;2022-09-09T04:58:50;95584.66;;;14.95;100.00
10097;BME280;5087;42.662;23.466;2022-09-09T05:01:23;95576.00;;;14.93;100.00
10097;BME280;5087;42.662;23.466;2022-09-09T05:03:52;95549.56;;;14.72;100.00
10097;BME280;5087;42.662;23.466;2022-09-09T05:06:23;95570.75;;;15.00;100.00
10097;BME280;5087;42.662;23.466;2022-09-09T05:08:56;95556.66;;;15.10;100.00
10097;BME280;5087;42.662;23.466;2022-09-09T05:11:31;95550.50;;;15.26;100.00
10097;BME280;5087;42.662;23.466;2022-09-09T05:14:20;95555.06;;;15.34;100.00
10097;BME280;5087;42.662;23.466;2022-09-09T05:16:47;95545.66;;;15.60;100.00
10097;BME280;5087;42.662;23.466;2022-09-09T05:19:17;95525.63;;;15.56;100.00
10097;BME280;5087;42.662;23.466;2022-09-09T05:21:49;95520.41;;;15.79;100.00
10097;BME280;5087;42.662;23.466;2022-09-09T05:24:22;95539.34;;;16.25;100.00
10097;BME280;5087;42.662;23.466;2022-09-09T05:26:52;95548.16;;;16.46;100.00
10097;BME280;5087;42.662;23.466;2022-09-09T05:29:19;95538.44;;;16.21;100.00
10097;BME280;5087;42.662;23.466;2022-09-09T05:31:47;95551.16;;;16.57;100.00
10097;BME280;5087;42.662;23.466;2022-09-09T05:34:22;95544.94;;;17.21;100.00
10097;BME280;5087;42.662;23.466;2022-09-09T05:36:50;95547.44;;;17.26;100.00
10097;BME280;5087;42.662;23.466;2022-09-09T05:39:25;95508.03;;;16.70;100.00
10097;BME280;5087;42.662;23.466;2022-09-09T05:41:53;95530.84;;;16.58;100.00
10097;BME280;5087;42.662;23.466;2022-09-09T05:44:21;95528.88;;;17.03;100.00
10097;BME280;5087;42.662;23.466;2022-09-09T05:46:49;95531.59;;;17.19;100.00
10097;BME280;5087;42.662;23.466;2022-09-09T05:49:17;95535.81;;;17.68;100.00
10097;BME280;5087;42.662;23.466;2022-09-09T05:51:44;95520.66;;;17.75;100.00
10097;BME280;5087;42.662;23.466;2022-09-09T05:54:14;95532.13;;;18.16;100.00
10097;BME280;5087;42.662;23.466;2022-09-09T05:56:48;95532.53;;;18.38;100.00
10097;BME280;5087;42.662;23.466;2022-09-09T05:59:19;95527.19;;;18.45;100.00
10097;BME280;5087;42.662;23.466;2022-09-09T06:01:46;95538.28;;;18.72;100.00
10097;BME280;5087;42.662;23.466;2022-09-09T06:04:28;95521.97;;;18.82;100.00
10097;BME280;5087;42.662;23.466;2022-09-09T06:07:02;95533.63;;;19.22;100.00
10097;BME280;5087;42.662;23.466;2022-09-09T06:09:29;95544.47;;;19.61;100.00
10097;BME280;5087;42.662;23.466;2022-09-09T06:12:32;95551.31;;;20.32;100.00
10097;BME280;5087;42.662;23.466;2022-09-09T06:15:01;95525.91;;;20.50;100.00
10097;BME280;5087;42.662;23.466;2022-09-09T06:17:28;95554.84;;;20.67;100.00
10097;BME280;5087;42.662;23.466;2022-09-09T06:19:56;95567.03;;;21.00;100.00
10097;BME280;5087;42.662;23.466;2022-09-09T06:22:24;95551.44;;;20.77;100.00
10097;BME280;5087;42.662;23.466;2022-09-09T06:24:51;95538.66;;;20.99;100.00
10097;BME280;5087;42.662;23.466;2022-09-09T06:27:19;95546.81;;;21.37;100.00
10097;BME280;5087;42.662;23.466;2022-09-09T06:29:48;95548.53;;;21.56;100.00
10097;BME280;5087;42.662;23.466;2022-09-09T06:32:15;95550.16;;;21.57;100.00
10097;BME280;5087;42.662;23.466;2022-09-09T06:34:43;95567.56;;;21.65;100.00
10097;BME280;5087;42.662;23.466;2022-09-09T06:37:11;95563.84;;;21.46;100.00
10097;BME280;5087;42.662;23.466;2022-09-09T06:39:44;95551.53;;;21.89;100.00
10097;BME280;5087;42.662;23.466;2022-09-09T06:42:12;95533.03;;;22.00;100.00
10097;BME280;5087;42.662;23.466;2022-09-09T06:45:12;95541.78;;;22.13;100.00
10097;BME280;5087;42.662;23.466;2022-09-09T06:47:48;95541.81;;;22.17;100.00
10097;BME280;5087;42.662;23.466;2022-09-09T06:50:15;95538.72;;;22.36;100.00
10097;BME280;5087;42.662;23.466;2022-09-09T06:52:46;95536.41;;;22.42;100.00
10097;BME280;5087;42.662;23.466;2022-09-09T06:55:16;95519.44;;;22.65;100.00
10097;BME280;5087;42.662;23.466;2022-09-09T06:57:43;95543.63;;;22.90;100.00
10097;BME280;5087;42.662;23.466;2022-09-09T07:00:17;95544.44;;;23.08;100.00
10097;BME280;5087;42.662;23.466;2022-09-09T07:02:45;95536.50;;;22.89;100.00
10097;BME280;5087;42.662;23.466;2022-09-09T07:05:13;95507.25;;;22.99;100.00
10097;BME280;5087;42.662;23.466;2022-09-09T07:07:42;95551.91;;;22.79;100.00
10097;BME280;5087;42.662;23.466;2022-09-09T07:10:11;95548.75;;;22.88;100.00
10097;BME280;5087;42.662;23.466;2022-09-09T07:12:39;95541.88;;;22.38;100.00
10097;BME280;5087;42.662;23.466;2022-09-09T07:15:09;95553.03;;;22.56;100.00
10097;BME280;5087;42.662;23.466;2022-09-09T07:17:42;95525.28;;;22.38;100.00
10097;BME280;5087;42.662;23.466;2022-09-09T07:20:09;95530.16;;;22.70;100.00
10097;BME280;5087;42.662;23.466;2022-09-09T07:22:37;95534.16;;;23.63;100.00
10097;BME280;5087;42.662;23.466;2022-09-09T07:25:05;95530.84;;;24.19;98.65
10097;BME280;5087;42.662;23.466;2022-09-09T07:27:35;95536.53;;;24.83;93.15
10097;BME280;5087;42.662;23.466;2022-09-09T07:30:05;95532.16;;;24.85;91.21
10097;BME280;5087;42.662;23.466;2022-09-09T07:32:32;95533.97;;;25.63;85.59
10097;BME280;5087;42.662;23.466;2022-09-09T07:35:02;95536.94;;;25.79;82.86
10097;BME280;5087;42.662;23.466;2022-09-09T07:37:29;95526.03;;;25.57;82.48
10097;BME280;5087;42.662;23.466;2022-09-09T07:39:57;95525.63;;;26.01;82.83
10097;BME280;5087;42.662;23.466;2022-09-09T07:42:24;95517.63;;;25.65;85.58
10097;BME280;5087;42.662;23.466;2022-09-09T07:44:55;95518.59;;;24.16;89.37
10097;BME280;5087;42.662;23.466;2022-09-09T07:47:23;95516.66;;;23.99;94.49
10097;BME280;5087;42.662;23.466;2022-09-09T07:49:52;95529.78;;;24.80;90.09
10097;BME280;5087;42.662;23.466;2022-09-09T07:52:26;95517.94;;;25.28;84.25
10097;BME280;5087;42.662;23.466;2022-09-09T07:54:57;95533.47;;;25.22;83.38
10097;BME280;5087;42.662;23.466;2022-09-09T07:57:25;95533.75;;;25.84;83.51
10097;BME280;5087;42.662;23.466;2022-09-09T07:59:54;95528.19;;;25.84;82.46
10097;BME280;5087;42.662;23.466;2022-09-09T08:02:22;95522.81;;;26.39;81.59
10097;BME280;5087;42.662;23.466;2022-09-09T08:04:51;95530.97;;;25.42;81.28
10097;BME280;5087;42.662;23.466;2022-09-09T08:07:19;95522.72;;;24.61;84.31
10097;BME280;5087;42.662;23.466;2022-09-09T08:09:53;95499.06;;;24.38;87.63
10097;BME280;5087;42.662;23.466;2022-09-09T08:12:25;95521.03;;;24.89;87.99
10097;BME280;5087;42.662;23.466;2022-09-09T08:14:53;95534.53;;;25.36;81.77
10097;BME280;5087;42.662;23.466;2022-09-09T08:17:21;95524.34;;;25.18;83.53
10097;BME280;5087;42.662;23.466;2022-09-09T08:19:48;95521.03;;;24.85;82.25
10097;BME280;5087;42.662;23.466;2022-09-09T08:22:20;95524.38;;;24.51;91.28
10097;BME280;5087;42.662;23.466;2022-09-09T08:24:49;95525.47;;;24.64;85.73
10097;BME280;5087;42.662;23.466;2022-09-09T08:27:18;95521.75;;;24.22;89.94
10097;BME280;5087;42.662;23.466;2022-09-09T08:29:45;95517.16;;;24.64;89.62
10097;BME280;5087;42.662;23.466;2022-09-09T08:32:13;95499.91;;;25.51;82.80
10097;BME280;5087;42.662;23.466;2022-09-09T08:34:40;95514.78;;;26.45;80.16
10097;BME280;5087;42.662;23.466;2022-09-09T08:37:14;95489.06;;;26.64;77.61
10097;BME280;5087;42.662;23.466;2022-09-09T08:39:42;95492.09;;;25.77;77.88
10097;BME280;5087;42.662;23.466;2022-09-09T08:42:32;95500.84;;;26.14;77.07
10097;BME280;5087;42.662;23.466;2022-09-09T08:45:17;95502.56;;;27.21;73.64
10097;BME280;5087;42.662;23.466;2022-09-09T08:48:06;95493.41;;;27.68;71.97
10097;BME280;5087;42.662;23.466;2022-09-09T08:50:39;95502.00;;;26.78;72.80
10097;BME280;5087;42.662;23.466;2022-09-09T08:53:19;95496.91;;;27.00;73.46
10097;BME280;5087;42.662;23.466;2022-09-09T08:55:51;95501.44;;;26.91;74.53
10097;BME280;5087;42.662;23.466;2022-09-09T08:58:32;95494.88;;;26.46;73.47
10097;BME280;5087;42.662;23.466;2022-09-09T09:01:17;95502.22;;;26.91;75.72
10097;BME280;5087;42.662;23.466;2022-09-09T09:03:58;95507.88;;;25.87;78.02
10097;BME280;5087;42.662;23.466;2022-09-09T09:06:39;95483.16;;;25.58;79.70
10097;BME280;5087;42.662;23.466;2022-09-09T09:09:22;95463.63;;;25.66;77.40
10097;BME280;5087;42.662;23.466;2022-09-09T09:11:55;95494.72;;;25.91;77.15
10097;BME280;5087;42.662;23.466;2022-09-09T09:14:32;95501.56;;;26.21;75.62
10097;BME280;5087;42.662;23.466;2022-09-09T09:17:06;95477.22;;;27.11;74.44
10097;BME280;5087;42.662;23.466;2022-09-09T09:19:35;95494.59;;;27.46;73.93
10097;BME280;5087;42.662;23.466;2022-09-09T09:22:13;95477.06;;;27.70;70.76
10097;BME280;5087;42.662;23.466;2022-09-09T09:24:49;95493.69;;;26.47;73.92
10097;BME280;5087;42.662;23.466;2022-09-09T09:27:27;95477.50;;;25.24;78.70
10097;BME280;5087;42.662;23.466;2022-09-09T09:30:00;95479.50;;;24.60;84.74
10097;BME280;5087;42.662;23.466;2022-09-09T09:32:33;95487.41;;;25.25;83.88
10097;BME280;5087;42.662;23.466;2022-09-09T09:35:06;95490.16;;;25.74;82.45
10097;BME280;5087;42.662;23.466;2022-09-09T09:37:41;95483.94;;;25.97;79.76
10097;BME280;5087;42.662;23.466;2022-09-09T09:40:12;95489.34;;;26.74;76.29
10097;BME280;5087;42.662;23.466;2022-09-09T09:42:48;95465.22;;;26.91;72.75
10097;BME280;5087;42.662;23.466;2022-09-09T09:45:26;95471.91;;;27.21;73.66
10097;BME280;5087;42.662;23.466;2022-09-09T09:48:00;95483.13;;;27.17;72.72
10097;BME280;5087;42.662;23.466;2022-09-09T09:50:30;95479.31;;;28.19;71.41
10097;BME280;5087;42.662;23.466;2022-09-09T09:53:00;95469.91;;;28.86;67.17
10097;BME280;5087;42.662;23.466;2022-09-09T09:55:32;95466.44;;;28.62;66.39
10097;BME280;5087;42.662;23.466;2022-09-09T09:58:03;95458.91;;;28.42;68.81
10097;BME280;5087;42.662;23.466;2022-09-09T10:00:33;95460.22;;;27.29;72.17
10097;BME280;5087;42.662;23.466;2022-09-09T10:03:19;95424.06;;;27.90;69.51
10097;BME280;5087;42.662;23.466;2022-09-09T10:05:49;95448.38;;;28.66;68.35
10097;BME280;5087;42.662;23.466;2022-09-09T10:08:17;95445.19;;;28.48;66.74
10097;BME280;5087;42.662;23.466;2022-09-09T10:10:52;95451.25;;;26.94;71.76
10097;BME280;5087;42.662;23.466;2022-09-09T10:13:25;95454.56;;;26.58;74.85
10097;BME280;5087;42.662;23.466;2022-09-09T10:16:06;95456.66;;;27.53;72.29
10097;BME280;5087;42.662;23.466;2022-09-09T10:18:52;95435.59;;;28.49;68.95
10097;BME280;5087;42.662;23.466;2022-09-09T10:21:41;95448.75;;;28.68;67.16
10097;BME280;5087;42.662;23.466;2022-09-09T10:24:42;95465.50;;;27.00;71.76
10097;BME280;5087;42.662;23.466;2022-09-09T10:27:20;95465.72;;;27.09;72.52
10097;BME280;5087;42.662;23.466;2022-09-09T10:30:01;95462.25;;;26.78;75.96
10097;BME280;5087;42.662;23.466;2022-09-09T10:32:41;95454.81;;;25.74;79.00
10097;BME280;5087;42.662;23.466;2022-09-09T10:35:24;95448.47;;;26.09;82.00
10097;BME280;5087;42.662;23.466;2022-09-09T10:38:11;95469.84;;;26.15;77.79
10097;BME280;5087;42.662;23.466;2022-09-09T10:41:00;95464.72;;;26.41;78.23
10097;BME280;5087;42.662;23.466;2022-09-09T10:43:46;95469.47;;;26.99;76.81
10097;BME280;5087;42.662;23.466;2022-09-09T10:46:23;95465.88;;;26.98;77.56
10097;BME280;5087;42.662;23.466;2022-09-09T10:49:05;95464.16;;;26.53;77.06
10097;BME280;5087;42.662;23.466;2022-09-09T10:51:40;95474.19;;;26.47;76.38
10097;BME280;5087;42.662;23.466;2022-09-09T10:54:29;95479.88;;;25.71;81.91
10097;BME280;5087;42.662;23.466;2022-09-09T10:57:01;95475.59;;;25.97;86.12
10097;BME280;5087;42.662;23.466;2022-09-09T10:59:33;95462.00;;;26.03;83.46
10097;BME280;5087;42.662;23.466;2022-09-09T11:02:12;95475.13;;;26.02;83.97
10097;BME280;5087;42.662;23.466;2022-09-09T11:04:47;95467.00;;;25.84;85.83
10097;BME280;5087;42.662;23.466;2022-09-09T11:07:24;95443.56;;;25.47;86.35
10097;BME280;5087;42.662;23.466;2022-09-09T11:09:56;95454.13;;;25.98;83.65
10097;BME280;5087;42.662;23.466;2022-09-09T11:12:30;95475.28;;;25.53;85.90
10097;BME280;5087;42.662;23.466;2022-09-09T11:15:03;95477.69;;;25.48;86.16
10097;BME280;5087;42.662;23.466;2022-09-09T11:17:38;95476.19;;;25.36;87.66
10097;BME280;5087;42.662;23.466;2022-09-09T11:20:13;95484.66;;;25.21;88.27
10097;BME280;5087;42.662;23.466;2022-09-09T11:22:45;95454.38;;;24.89;89.67
10097;BME280;5087;42.662;23.466;2022-09-09T11:25:17;95477.03;;;25.29;90.28
10097;BME280;5087;42.662;23.466;2022-09-09T11:27:56;95458.94;;;25.10;89.85
10097;BME280;5087;42.662;23.466;2022-09-09T11:30:36;95456.09;;;25.21;92.29
10097;BME280;5087;42.662;23.466;2022-09-09T11:33:42;95461.44;;;25.01;91.94
10097;BME280;5087;42.662;23.466;2022-09-09T11:36:56;95461.53;;;25.39;88.42
10097;BME280;5087;42.662;23.466;2022-09-09T11:39:38;95460.34;;;25.33;88.21
10097;BME280;5087;42.662;23.466;2022-09-09T11:42:17;95450.41;;;25.39;91.01
10097;BME280;5087;42.662;23.466;2022-09-09T11:44:45;95446.00;;;24.96;88.40
10097;BME280;5087;42.662;23.466;2022-09-09T11:47:20;95428.84;;;25.05;89.48
10097;BME280;5087;42.662;23.466;2022-09-09T11:49:50;95391.09;;;25.11;90.06
10097;BME280;5087;42.662;23.466;2022-09-09T11:52:24;95429.69;;;25.02;89.28
10097;BME280;5087;42.662;23.466;2022-09-09T11:54:55;95428.22;;;24.86;92.40
10097;BME280;5087;42.662;23.466;2022-09-09T11:57:36;95419.63;;;25.15;92.03
10097;BME280;5087;42.662;23.466;2022-09-09T12:00:05;95403.63;;;25.68;87.41
10097;BME280;5087;42.662;23.466;2022-09-09T12:02:48;95388.75;;;25.82;87.38
10097;BME280;5087;42.662;23.466;2022-09-09T12:05:16;95383.66;;;25.77;88.14
10097;BME280;5087;42.662;23.466;2022-09-09T12:07:51;95387.09;;;26.19;83.74
10097;BME280;5087;42.662;23.466;2022-09-09T12:10:22;95387.91;;;26.71;81.96
10097;BME280;5087;42.662;23.466;2022-09-09T12:12:54;95393.19;;;26.93;82.59
10097;BME280;5087;42.662;23.466;2022-09-09T12:15:25;95401.91;;;26.13;85.15
10097;BME280;5087;42.662;23.466;2022-09-09T12:17:55;95405.16;;;26.35;82.40
10097;BME280;5087;42.662;23.466;2022-09-09T12:20:34;95393.41;;;26.78;82.78
10097;BME280;5087;42.662;23.466;2022-09-09T12:23:24;95385.47;;;26.77;82.58
10097;BME280;5087;42.662;23.466;2022-09-09T12:26:04;95373.94;;;25.92;86.46
10097;BME280;5087;42.662;23.466;2022-09-09T12:28:48;95374.41;;;25.53;92.72
10097;BME280;5087;42.662;23.466;2022-09-09T12:31:24;95381.69;;;25.43;92.39
10097;BME280;5087;42.662;23.466;2022-09-09T12:33:53;95369.00;;;26.07;92.54
10097;BME280;5087;42.662;23.466;2022-09-09T12:36:24;95378.38;;;26.17;89.12
10097;BME280;5087;42.662;23.466;2022-09-09T12:38:57;95368.00;;;26.76;84.05
10097;BME280;5087;42.662;23.466;2022-09-09T12:41:27;95346.16;;;26.47;84.40
10097;BME280;5087;42.662;23.466;2022-09-09T12:44:04;95362.88;;;25.89;87.82
10097;BME280;5087;42.662;23.466;2022-09-09T12:46:36;95355.19;;;25.97;88.47
10097;BME280;5087;42.662;23.466;2022-09-09T12:49:04;95356.41;;;25.96;88.85
10097;BME280;5087;42.662;23.466;2022-09-09T12:51:33;95357.31;;;25.89;90.48
10097;BME280;5087;42.662;23.466;2022-09-09T12:54:01;95326.84;;;25.47;92.99
10097;BME280;5087;42.662;23.466;2022-09-09T12:56:31;95336.31;;;25.53;94.33
10097;BME280;5087;42.662;23.466;2022-09-09T12:58:59;95351.53;;;26.03;90.83
10097;BME280;5087;42.662;23.466;2022-09-09T13:01:29;95351.53;;;26.34;89.00
10097;BME280;5087;42.662;23.466;2022-09-09T13:03:57;95347.59;;;26.32;87.90
10097;BME280;5087;42.662;23.466;2022-09-09T13:06:26;95333.59;;;26.63;87.31
10097;BME280;5087;42.662;23.466;2022-09-09T13:08:56;95350.00;;;25.99;91.44
10097;BME280;5087;42.662;23.466;2022-09-09T13:11:29;95334.25;;;26.19;88.78
10097;BME280;5087;42.662;23.466;2022-09-09T13:13:59;95344.53;;;26.50;87.30
10097;BME280;5087;42.662;23.466;2022-09-09T13:16:27;95332.63;;;26.97;83.34
10097;BME280;5087;42.662;23.466;2022-09-09T13:18:58;95321.84;;;26.75;82.69
10097;BME280;5087;42.662;23.466;2022-09-09T13:21:34;95327.59;;;26.64;86.85
10097;BME280;5087;42.662;23.466;2022-09-09T13:24:04;95327.28;;;26.59;89.18
10097;BME280;5087;42.662;23.466;2022-09-09T13:26:34;95324.81;;;25.82;92.69
10097;BME280;5087;42.662;23.466;2022-09-09T13:29:16;95327.81;;;25.29;96.46
10097;BME280;5087;42.662;23.466;2022-09-09T13:31:44;95330.00;;;25.49;98.75